Goodrich, North Dakota
Current Conditions -  °F | °C
As of 12:35 PM on Thursday 30 Oct 2014 (Local Time) from K5H4 Reporting Station
Overcast Overcast  
Wind Chill: 21°   Ceiling: 1500
Heat Index: 32°   Visibility: 10mi
Dew Point: 28°   Wind: 17mph
Humidity: 87%   Direction: 20°NNE
Pressure: 30.4"   Gusts: NA
Location:  47.47°N, 100.13°W
Report Text: K5H4 301735Z AUTO 02015KT 10SM OVC015 00/M02 A3040 RMK AO2
Loading
Personal Weather Stations






























Interactive Weather Map
Tropical Storm Tracking
New forecast layout! Learn more

10-Day Weather Forecast

Advertisements
Track Severe Weather on mobile